STW331 HESH-LTAI
Flight info
| Callsign | STW331 |
|---|---|
| Flight time | 2h 1m |
| Altitude | 32000 |
| Route | SHM L677 GESON Q777 RASDA M855 TOMBI |
| Aircraft | B38M/M-SDE1FGHILORVWXY/HB1 |
Departure
| Time | 2026-05-08 13:31 |
|---|---|
| Airport | Sharm El Sheikh International Airport (HESH) |
Arrival
| Time | 2026-05-08 15:32 |
|---|---|
| Airport | Antalya International Airport (LTAI) |
| Time | Latitude | Longitude | Altitude | Speed | Heading |
|---|---|---|---|---|---|
| 2026-05-08 13:01 | 27.98016 | 34.38921 | 174 ft | 0 kts | 133° |
| 2026-05-08 13:21 | 27.98020 | 34.38917 | 174 ft | 4 kts | 136° |
| 2026-05-08 13:21 | 27.98041 | 34.38903 | 174 ft | 4 kts | 177° |
| 2026-05-08 13:21 | 27.98064 | 34.38911 | 174 ft | 4 kts | 218° |
| 2026-05-08 13:21 | 27.98072 | 34.38917 | 174 ft | 0 kts | 221° |
| 2026-05-08 13:25 | 27.98066 | 34.38912 | 174 ft | 2 kts | 221° |
| 2026-05-08 13:25 | 27.98048 | 34.38893 | 174 ft | 6 kts | 222° |
| 2026-05-08 13:25 | 27.98007 | 34.38841 | 174 ft | 12 kts | 236° |
| 2026-05-08 13:26 | 27.97937 | 34.38760 | 174 ft | 16 kts | 222° |
| 2026-05-08 13:26 | 27.97854 | 34.38673 | 174 ft | 17 kts | 223° |
| 2026-05-08 13:26 | 27.97762 | 34.38578 | 174 ft | 19 kts | 223° |
| 2026-05-08 13:26 | 27.97662 | 34.38474 | 174 ft | 20 kts | 223° |
| 2026-05-08 13:27 | 27.97590 | 34.38401 | 174 ft | 11 kts | 207° |
| 2026-05-08 13:27 | 27.97527 | 34.38441 | 174 ft | 12 kts | 133° |
| 2026-05-08 13:27 | 27.97468 | 34.38513 | 174 ft | 13 kts | 133° |
| 2026-05-08 13:27 | 27.97390 | 34.38513 | 174 ft | 14 kts | 222° |
| 2026-05-08 13:28 | 27.97316 | 34.38435 | 174 ft | 15 kts | 223° |
| 2026-05-08 13:28 | 27.97233 | 34.38350 | 174 ft | 17 kts | 223° |
| 2026-05-08 13:28 | 27.97143 | 34.38254 | 174 ft | 18 kts | 223° |
| 2026-05-08 13:28 | 27.97050 | 34.38158 | 175 ft | 12 kts | 221° |
| 2026-05-08 13:29 | 27.96993 | 34.38129 | 176 ft | 9 kts | 169° |
| 2026-05-08 13:29 | 27.96941 | 34.38175 | 176 ft | 10 kts | 132° |
| 2026-05-08 13:29 | 27.96890 | 34.38240 | 175 ft | 12 kts | 123° |
| 2026-05-08 13:29 | 27.96916 | 34.38322 | 176 ft | 13 kts | 43° |
| 2026-05-08 13:30 | 27.96997 | 34.38406 | 176 ft | 22 kts | 42° |
| 2026-05-08 13:30 | 27.97288 | 34.38709 | 177 ft | 92 kts | 43° |
| 2026-05-08 13:30 | 27.97918 | 34.39364 | 177 ft | 151 kts | 42° |
| 2026-05-08 13:30 | 27.98769 | 34.40287 | 386 ft | 178 kts | 45° |
| 2026-05-08 13:31 | 27.99762 | 34.41076 | 1178 ft | 168 kts | 9° |
| 2026-05-08 13:31 | 28.00853 | 34.40778 | 1933 ft | 172 kts | 324° |
| 2026-05-08 13:31 | 28.01831 | 34.39876 | 2433 ft | 192 kts | 316° |
| 2026-05-08 13:31 | 28.02774 | 34.38678 | 2902 ft | 216 kts | 309° |
| 2026-05-08 13:32 | 28.03761 | 34.37313 | 3501 ft | 237 kts | 309° |
| 2026-05-08 13:32 | 28.04832 | 34.35823 | 4285 ft | 247 kts | 309° |
| 2026-05-08 13:32 | 28.05941 | 34.34273 | 5100 ft | 262 kts | 309° |
| 2026-05-08 13:32 | 28.07115 | 34.32623 | 5895 ft | 273 kts | 309° |
| 2026-05-08 13:33 | 28.08301 | 34.30952 | 6926 ft | 273 kts | 310° |
| 2026-05-08 13:33 | 28.09502 | 34.29258 | 7773 ft | 279 kts | 309° |
| 2026-05-08 13:33 | 28.10721 | 34.27531 | 8678 ft | 283 kts | 309° |
| 2026-05-08 13:33 | 28.11958 | 34.25777 | 9590 ft | 286 kts | 309° |
| 2026-05-08 13:34 | 28.13217 | 34.23995 | 10380 ft | 294 kts | 308° |
| 2026-05-08 13:34 | 28.14537 | 34.22130 | 10818 ft | 313 kts | 308° |
| 2026-05-08 13:34 | 28.15945 | 34.20140 | 11169 ft | 334 kts | 309° |
| 2026-05-08 13:34 | 28.17435 | 34.18032 | 11603 ft | 349 kts | 309° |
| 2026-05-08 13:35 | 28.18977 | 34.15848 | 12143 ft | 358 kts | 308° |
| 2026-05-08 13:35 | 28.20532 | 34.13642 | 13011 ft | 358 kts | 308° |
| 2026-05-08 13:35 | 28.22097 | 34.11419 | 13731 ft | 363 kts | 308° |
| 2026-05-08 13:35 | 28.23684 | 34.09165 | 14376 ft | 366 kts | 308° |
| 2026-05-08 13:36 | 28.25273 | 34.06905 | 15084 ft | 368 kts | 308° |
| 2026-05-08 13:36 | 28.26856 | 34.04654 | 15705 ft | 371 kts | 309° |
| 2026-05-08 13:36 | 28.28470 | 34.02357 | 16340 ft | 374 kts | 309° |
| 2026-05-08 13:36 | 28.30098 | 34.00038 | 16959 ft | 376 kts | 309° |
| 2026-05-08 13:37 | 28.31736 | 33.97704 | 17603 ft | 379 kts | 310° |
| 2026-05-08 13:37 | 28.33379 | 33.95359 | 18207 ft | 381 kts | 309° |
| 2026-05-08 13:37 | 28.35032 | 33.93000 | 18714 ft | 382 kts | 309° |
| 2026-05-08 13:37 | 28.36690 | 33.90634 | 19233 ft | 384 kts | 309° |
| 2026-05-08 13:38 | 28.38356 | 33.88255 | 19730 ft | 386 kts | 310° |
| 2026-05-08 13:38 | 28.40026 | 33.85868 | 20282 ft | 386 kts | 310° |
| 2026-05-08 13:38 | 28.41704 | 33.83467 | 20769 ft | 389 kts | 310° |
| 2026-05-08 13:38 | 28.43393 | 33.81052 | 21288 ft | 391 kts | 310° |
| 2026-05-08 13:39 | 28.45086 | 33.78627 | 21779 ft | 393 kts | 309° |
| 2026-05-08 13:39 | 28.46791 | 33.76186 | 22255 ft | 395 kts | 310° |
| 2026-05-08 13:39 | 28.48504 | 33.73732 | 22729 ft | 397 kts | 310° |
| 2026-05-08 13:39 | 28.50198 | 33.71302 | 23234 ft | 398 kts | 310° |
| 2026-05-08 13:40 | 28.51921 | 33.68828 | 23648 ft | 401 kts | 310° |
| 2026-05-08 13:40 | 28.53663 | 33.66342 | 24023 ft | 402 kts | 310° |
| 2026-05-08 13:40 | 28.55435 | 33.63861 | 24383 ft | 404 kts | 310° |
| 2026-05-08 13:40 | 28.57208 | 33.61372 | 24764 ft | 406 kts | 310° |
| 2026-05-08 13:41 | 28.58991 | 33.58867 | 25132 ft | 408 kts | 310° |
| 2026-05-08 13:41 | 28.60778 | 33.56352 | 25540 ft | 410 kts | 310° |
| 2026-05-08 13:41 | 28.62577 | 33.53822 | 25895 ft | 413 kts | 310° |
| 2026-05-08 13:41 | 28.64386 | 33.51272 | 26268 ft | 415 kts | 310° |
| 2026-05-08 13:42 | 28.66202 | 33.48712 | 26631 ft | 417 kts | 310° |
| 2026-05-08 13:42 | 28.68026 | 33.46140 | 26994 ft | 418 kts | 310° |
| 2026-05-08 13:42 | 28.69859 | 33.43552 | 27358 ft | 420 kts | 310° |
| 2026-05-08 13:42 | 28.71699 | 33.40953 | 27686 ft | 423 kts | 310° |
| 2026-05-08 13:43 | 28.73551 | 33.38336 | 28052 ft | 424 kts | 310° |
| 2026-05-08 13:43 | 28.75408 | 33.35711 | 28406 ft | 426 kts | 310° |
| 2026-05-08 13:43 | 28.77273 | 33.33072 | 28732 ft | 428 kts | 310° |
| 2026-05-08 13:43 | 28.79120 | 33.30457 | 29066 ft | 430 kts | 310° |
| 2026-05-08 13:44 | 28.80995 | 33.27800 | 29405 ft | 431 kts | 310° |
| 2026-05-08 13:44 | 28.82881 | 33.25127 | 29867 ft | 430 kts | 310° |
| 2026-05-08 13:44 | 28.84751 | 33.22474 | 30311 ft | 429 kts | 310° |
| 2026-05-08 13:44 | 28.86620 | 33.19822 | 30737 ft | 427 kts | 310° |
| 2026-05-08 13:45 | 28.88477 | 33.17185 | 31163 ft | 425 kts | 310° |
| 2026-05-08 13:45 | 28.90327 | 33.14554 | 31573 ft | 424 kts | 310° |
| 2026-05-08 13:45 | 28.92174 | 33.11928 | 31894 ft | 424 kts | 310° |
| 2026-05-08 13:45 | 28.94026 | 33.09292 | 31948 ft | 427 kts | 310° |
| 2026-05-08 13:46 | 28.97746 | 33.03994 | 31941 ft | 428 kts | 310° |
| 2026-05-08 13:46 | 29.01442 | 32.98723 | 31941 ft | 428 kts | 310° |
| 2026-05-08 13:47 | 29.05422 | 32.93713 | 31944 ft | 426 kts | 323° |
| 2026-05-08 13:47 | 29.10482 | 32.90172 | 31961 ft | 426 kts | 327° |
| 2026-05-08 13:48 | 29.15571 | 32.86649 | 31951 ft | 428 kts | 328° |
| 2026-05-08 13:48 | 29.19841 | 32.83756 | 31955 ft | 429 kts | 328° |
| 2026-05-08 13:49 | 29.24984 | 32.80286 | 31967 ft | 429 kts | 328° |
| 2026-05-08 13:49 | 29.30122 | 32.76819 | 31974 ft | 427 kts | 328° |
| 2026-05-08 13:50 | 29.35248 | 32.73355 | 31973 ft | 427 kts | 328° |
| 2026-05-08 13:50 | 29.40339 | 32.69911 | 31988 ft | 427 kts | 328° |
| 2026-05-08 13:51 | 29.45454 | 32.66447 | 31987 ft | 427 kts | 328° |
| 2026-05-08 13:51 | 29.50580 | 32.62971 | 31988 ft | 427 kts | 328° |
| 2026-05-08 13:52 | 29.55699 | 32.59497 | 32006 ft | 428 kts | 328° |
| 2026-05-08 13:52 | 29.60828 | 32.56010 | 32009 ft | 428 kts | 328° |
| 2026-05-08 13:53 | 29.65965 | 32.52515 | 32015 ft | 429 kts | 328° |
| 2026-05-08 13:53 | 29.71101 | 32.49015 | 32020 ft | 429 kts | 328° |
| 2026-05-08 13:54 | 29.76225 | 32.45520 | 32023 ft | 428 kts | 328° |
| 2026-05-08 13:54 | 29.81328 | 32.42035 | 32023 ft | 428 kts | 328° |
| 2026-05-08 13:55 | 29.86455 | 32.38530 | 32029 ft | 428 kts | 328° |
| 2026-05-08 13:56 | 29.94134 | 32.33271 | 32023 ft | 429 kts | 328° |
| 2026-05-08 13:56 | 29.99275 | 32.29744 | 32039 ft | 429 kts | 328° |
| 2026-05-08 13:57 | 30.04405 | 32.26222 | 32048 ft | 430 kts | 328° |
| 2026-05-08 13:57 | 30.09541 | 32.22691 | 32042 ft | 430 kts | 328° |
| 2026-05-08 13:58 | 30.14676 | 32.19157 | 32053 ft | 430 kts | 328° |
| 2026-05-08 13:58 | 30.19802 | 32.15623 | 32058 ft | 428 kts | 328° |
| 2026-05-08 13:59 | 30.24912 | 32.12098 | 32064 ft | 428 kts | 328° |
| 2026-05-08 13:59 | 30.29994 | 32.08586 | 32065 ft | 428 kts | 328° |
| 2026-05-08 14:00 | 30.35110 | 32.05048 | 32067 ft | 429 kts | 328° |
| 2026-05-08 14:00 | 30.40234 | 32.01499 | 32069 ft | 429 kts | 328° |
| 2026-05-08 14:01 | 30.45351 | 31.97950 | 32069 ft | 429 kts | 328° |
| 2026-05-08 14:01 | 30.50463 | 31.94401 | 32062 ft | 427 kts | 328° |
| 2026-05-08 14:02 | 30.55565 | 31.90854 | 32064 ft | 427 kts | 328° |
| 2026-05-08 14:02 | 30.60669 | 31.87302 | 32068 ft | 428 kts | 328° |
| 2026-05-08 14:03 | 30.65770 | 31.83747 | 32058 ft | 428 kts | 328° |
| 2026-05-08 14:03 | 30.70872 | 31.80187 | 32069 ft | 428 kts | 328° |
| 2026-05-08 14:04 | 30.75988 | 31.76613 | 32077 ft | 430 kts | 328° |
| 2026-05-08 14:04 | 30.81105 | 31.73034 | 32066 ft | 428 kts | 328° |
| 2026-05-08 14:05 | 30.86215 | 31.69455 | 32072 ft | 429 kts | 328° |
| 2026-05-08 14:05 | 30.91297 | 31.65891 | 32071 ft | 429 kts | 328° |
| 2026-05-08 14:06 | 30.96410 | 31.62301 | 32072 ft | 429 kts | 328° |
| 2026-05-08 14:06 | 31.01515 | 31.58712 | 32074 ft | 429 kts | 328° |
| 2026-05-08 14:07 | 31.06621 | 31.55118 | 32100 ft | 428 kts | 327° |
| 2026-05-08 14:07 | 31.11711 | 31.51530 | 32075 ft | 427 kts | 327° |
| 2026-05-08 14:08 | 31.16827 | 31.47920 | 32088 ft | 430 kts | 327° |
| 2026-05-08 14:08 | 31.21944 | 31.44304 | 32088 ft | 430 kts | 327° |
| 2026-05-08 14:09 | 31.27495 | 31.41769 | 32102 ft | 436 kts | 347° |
| 2026-05-08 14:09 | 31.33447 | 31.40566 | 32109 ft | 437 kts | 347° |
| 2026-05-08 14:10 | 31.39449 | 31.39425 | 32096 ft | 436 kts | 347° |
| 2026-05-08 14:10 | 31.45448 | 31.38309 | 32100 ft | 437 kts | 347° |
| 2026-05-08 14:11 | 31.51447 | 31.37193 | 32108 ft | 437 kts | 347° |
| 2026-05-08 14:11 | 31.57490 | 31.36302 | 32115 ft | 439 kts | 351° |
| 2026-05-08 14:12 | 31.63566 | 31.35689 | 32102 ft | 437 kts | 350° |
| 2026-05-08 14:12 | 31.69637 | 31.35040 | 32103 ft | 438 kts | 350° |
| 2026-05-08 14:13 | 31.75697 | 31.34388 | 32106 ft | 438 kts | 350° |
| 2026-05-08 14:13 | 31.81763 | 31.33733 | 32102 ft | 437 kts | 350° |
| 2026-05-08 14:14 | 31.87829 | 31.33085 | 32099 ft | 438 kts | 350° |
| 2026-05-08 14:14 | 31.93897 | 31.32445 | 32099 ft | 438 kts | 350° |
| 2026-05-08 14:15 | 31.99927 | 31.31808 | 32097 ft | 438 kts | 350° |
| 2026-05-08 14:15 | 32.05999 | 31.31164 | 32103 ft | 438 kts | 350° |
| 2026-05-08 14:16 | 32.12050 | 31.30519 | 32102 ft | 436 kts | 349° |
| 2026-05-08 14:16 | 32.18091 | 31.29872 | 32100 ft | 436 kts | 349° |
| 2026-05-08 14:17 | 32.24138 | 31.29222 | 32114 ft | 436 kts | 349° |
| 2026-05-08 14:17 | 32.30178 | 31.28572 | 32105 ft | 436 kts | 349° |
| 2026-05-08 14:18 | 32.36220 | 31.27920 | 32112 ft | 436 kts | 349° |
| 2026-05-08 14:18 | 32.42264 | 31.27268 | 32108 ft | 436 kts | 349° |
| 2026-05-08 14:19 | 32.48306 | 31.26615 | 32108 ft | 436 kts | 349° |
| 2026-05-08 14:19 | 32.54307 | 31.25965 | 32111 ft | 436 kts | 349° |
| 2026-05-08 14:20 | 32.60021 | 31.24142 | 32118 ft | 422 kts | 331° |
| 2026-05-08 14:20 | 32.65367 | 31.21155 | 32105 ft | 426 kts | 332° |
| 2026-05-08 14:20 | 32.68194 | 31.20029 | 32088 ft | 433 kts | 345° |
| 2026-05-08 14:21 | 32.71204 | 31.19600 | 32106 ft | 437 kts | 347° |
| 2026-05-08 14:21 | 32.77227 | 31.18658 | 32114 ft | 437 kts | 347° |
| 2026-05-08 14:22 | 32.83253 | 31.17689 | 32124 ft | 435 kts | 347° |
| 2026-05-08 14:22 | 32.89241 | 31.16724 | 32112 ft | 434 kts | 347° |
| 2026-05-08 14:23 | 32.95194 | 31.15762 | 32112 ft | 434 kts | 347° |
| 2026-05-08 14:23 | 33.01181 | 31.14794 | 32114 ft | 434 kts | 347° |
| 2026-05-08 14:24 | 33.07168 | 31.13825 | 32119 ft | 434 kts | 347° |
| 2026-05-08 14:24 | 33.13149 | 31.12855 | 32114 ft | 433 kts | 347° |
| 2026-05-08 14:25 | 33.19122 | 31.11885 | 32115 ft | 433 kts | 347° |
| 2026-05-08 14:25 | 33.25099 | 31.10913 | 32116 ft | 433 kts | 347° |
| 2026-05-08 14:26 | 33.31070 | 31.09941 | 32124 ft | 433 kts | 347° |
| 2026-05-08 14:26 | 33.37042 | 31.08968 | 32116 ft | 433 kts | 347° |
| 2026-05-08 14:27 | 33.42972 | 31.08000 | 32116 ft | 433 kts | 347° |
| 2026-05-08 14:27 | 33.48949 | 31.07022 | 32116 ft | 433 kts | 347° |
| 2026-05-08 14:28 | 33.54916 | 31.06045 | 32128 ft | 432 kts | 347° |
| 2026-05-08 14:28 | 33.60879 | 31.05068 | 32119 ft | 432 kts | 347° |
| 2026-05-08 14:29 | 33.66840 | 31.04089 | 32114 ft | 432 kts | 347° |
| 2026-05-08 14:29 | 33.72804 | 31.03109 | 32118 ft | 432 kts | 347° |
| 2026-05-08 14:30 | 33.78761 | 31.02128 | 32136 ft | 431 kts | 347° |
| 2026-05-08 14:30 | 33.84688 | 31.01151 | 32116 ft | 430 kts | 347° |
| 2026-05-08 14:31 | 33.90577 | 31.00179 | 32115 ft | 430 kts | 347° |
| 2026-05-08 14:31 | 33.96503 | 30.99199 | 32115 ft | 430 kts | 347° |
| 2026-05-08 14:32 | 34.05391 | 30.97727 | 32114 ft | 429 kts | 347° |
| 2026-05-08 14:32 | 34.11301 | 30.96746 | 32114 ft | 429 kts | 347° |
| 2026-05-08 14:33 | 34.17220 | 30.95762 | 32117 ft | 430 kts | 347° |
| 2026-05-08 14:33 | 34.23161 | 30.94774 | 32114 ft | 431 kts | 347° |
| 2026-05-08 14:34 | 34.29070 | 30.93790 | 32114 ft | 431 kts | 347° |
| 2026-05-08 14:34 | 34.35020 | 30.92797 | 32114 ft | 431 kts | 347° |
| 2026-05-08 14:35 | 34.40976 | 30.91802 | 32111 ft | 431 kts | 347° |
| 2026-05-08 14:35 | 34.46925 | 30.90806 | 32127 ft | 431 kts | 346° |
| 2026-05-08 14:36 | 34.52872 | 30.89810 | 32116 ft | 431 kts | 346° |
| 2026-05-08 14:36 | 34.58815 | 30.88812 | 32113 ft | 431 kts | 346° |
| 2026-05-08 14:37 | 34.63808 | 30.88361 | 32117 ft | 437 kts | 353° |
| 2026-05-08 14:37 | 34.69884 | 30.88218 | 32123 ft | 436 kts | 352° |
| 2026-05-08 14:38 | 34.75957 | 30.88006 | 32110 ft | 436 kts | 352° |
| 2026-05-08 14:38 | 34.82025 | 30.87785 | 32111 ft | 436 kts | 352° |
| 2026-05-08 14:39 | 34.88095 | 30.87562 | 32110 ft | 436 kts | 352° |
| 2026-05-08 14:39 | 34.94168 | 30.87338 | 32121 ft | 437 kts | 352° |
| 2026-05-08 14:40 | 35.00241 | 30.87115 | 32112 ft | 437 kts | 352° |
| 2026-05-08 14:40 | 35.06318 | 30.86891 | 32111 ft | 437 kts | 352° |
| 2026-05-08 14:41 | 35.12395 | 30.86667 | 32105 ft | 437 kts | 352° |
| 2026-05-08 14:41 | 35.18451 | 30.86449 | 32108 ft | 438 kts | 352° |
| 2026-05-08 14:42 | 35.24548 | 30.86247 | 32105 ft | 438 kts | 352° |
| 2026-05-08 14:42 | 35.30641 | 30.86043 | 32102 ft | 438 kts | 352° |
| 2026-05-08 14:43 | 35.36738 | 30.85839 | 32120 ft | 438 kts | 352° |
| 2026-05-08 14:43 | 35.42843 | 30.85634 | 32105 ft | 439 kts | 352° |
| 2026-05-08 14:44 | 35.48949 | 30.85428 | 32105 ft | 439 kts | 352° |
| 2026-05-08 14:44 | 35.55058 | 30.85223 | 32104 ft | 439 kts | 352° |
| 2026-05-08 14:45 | 35.61164 | 30.85006 | 32105 ft | 439 kts | 351° |
| 2026-05-08 14:45 | 35.64192 | 30.84821 | 31604 ft | 433 kts | 350° |
| 2026-05-08 14:45 | 35.67204 | 30.84636 | 30786 ft | 435 kts | 351° |
| 2026-05-08 14:46 | 35.70248 | 30.84455 | 29794 ft | 439 kts | 351° |
| 2026-05-08 14:46 | 35.73276 | 30.84276 | 28718 ft | 443 kts | 352° |
| 2026-05-08 14:46 | 35.76371 | 30.84093 | 27720 ft | 446 kts | 352° |
| 2026-05-08 14:46 | 35.79470 | 30.83909 | 27021 ft | 443 kts | 352° |
| 2026-05-08 14:47 | 35.82499 | 30.83729 | 26811 ft | 429 kts | 352° |
| 2026-05-08 14:47 | 35.85445 | 30.83554 | 26523 ft | 418 kts | 352° |
| 2026-05-08 14:47 | 35.88310 | 30.83384 | 26276 ft | 407 kts | 352° |
| 2026-05-08 14:47 | 35.91104 | 30.83218 | 26043 ft | 397 kts | 352° |
| 2026-05-08 14:48 | 35.93829 | 30.83055 | 25826 ft | 387 kts | 352° |
| 2026-05-08 14:48 | 35.96480 | 30.82898 | 25624 ft | 377 kts | 352° |
| 2026-05-08 14:48 | 35.99071 | 30.82743 | 25423 ft | 367 kts | 352° |
| 2026-05-08 14:48 | 36.01631 | 30.82590 | 25242 ft | 374 kts | 352° |
| 2026-05-08 14:49 | 36.04287 | 30.82449 | 25043 ft | 390 kts | 354° |
| 2026-05-08 14:49 | 36.07057 | 30.82360 | 24859 ft | 404 kts | 354° |
| 2026-05-08 14:49 | 36.09885 | 30.82265 | 24741 ft | 409 kts | 354° |
| 2026-05-08 14:49 | 36.12742 | 30.82166 | 24576 ft | 411 kts | 354° |
| 2026-05-08 14:50 | 36.15599 | 30.82066 | 24416 ft | 411 kts | 354° |
| 2026-05-08 14:50 | 36.18401 | 30.81603 | 24195 ft | 402 kts | 339° |
| 2026-05-08 14:50 | 36.20854 | 30.80059 | 24044 ft | 394 kts | 323° |
| 2026-05-08 14:50 | 36.23110 | 30.78173 | 23905 ft | 392 kts | 325° |
| 2026-05-08 14:51 | 36.25406 | 30.76325 | 23745 ft | 395 kts | 325° |
| 2026-05-08 14:51 | 36.27707 | 30.74463 | 23559 ft | 395 kts | 325° |
| 2026-05-08 14:51 | 36.29975 | 30.72624 | 23374 ft | 394 kts | 325° |
| 2026-05-08 14:51 | 36.32271 | 30.70758 | 23201 ft | 393 kts | 325° |
| 2026-05-08 14:52 | 36.34538 | 30.68916 | 22604 ft | 390 kts | 325° |
| 2026-05-08 14:52 | 36.39079 | 30.65220 | 21424 ft | 387 kts | 325° |
| 2026-05-08 14:52 | 36.41328 | 30.63388 | 20872 ft | 386 kts | 325° |
| 2026-05-08 14:53 | 36.43568 | 30.61561 | 20342 ft | 384 kts | 325° |
| 2026-05-08 14:53 | 36.45881 | 30.59912 | 19774 ft | 385 kts | 331° |
| 2026-05-08 14:53 | 36.48261 | 30.58374 | 19275 ft | 383 kts | 330° |
| 2026-05-08 14:53 | 36.50628 | 30.56820 | 19137 ft | 392 kts | 330° |
| 2026-05-08 14:54 | 36.53072 | 30.55200 | 19070 ft | 401 kts | 330° |
| 2026-05-08 14:54 | 36.55554 | 30.53547 | 19068 ft | 407 kts | 330° |
| 2026-05-08 14:54 | 36.58055 | 30.51876 | 19095 ft | 409 kts | 330° |
| 2026-05-08 14:54 | 36.60570 | 30.50195 | 19102 ft | 409 kts | 330° |
| 2026-05-08 14:55 | 36.63045 | 30.48537 | 19111 ft | 410 kts | 330° |
| 2026-05-08 14:55 | 36.65558 | 30.46854 | 19103 ft | 410 kts | 330° |
| 2026-05-08 14:55 | 36.68069 | 30.45171 | 19095 ft | 410 kts | 330° |
| 2026-05-08 14:55 | 36.70581 | 30.43486 | 19117 ft | 410 kts | 330° |
| 2026-05-08 14:56 | 36.73091 | 30.41801 | 19105 ft | 409 kts | 330° |
| 2026-05-08 14:56 | 36.75599 | 30.40116 | 19084 ft | 409 kts | 330° |
| 2026-05-08 14:56 | 36.78105 | 30.38430 | 19129 ft | 409 kts | 330° |
| 2026-05-08 14:56 | 36.80615 | 30.36742 | 19133 ft | 411 kts | 330° |
| 2026-05-08 14:57 | 36.83146 | 30.35061 | 19130 ft | 412 kts | 333° |
| 2026-05-08 14:57 | 36.85896 | 30.34050 | 19117 ft | 416 kts | 352° |
| 2026-05-08 14:57 | 36.88789 | 30.34238 | 19062 ft | 421 kts | 7° |
| 2026-05-08 14:57 | 36.91691 | 30.34722 | 18971 ft | 420 kts | 4° |
| 2026-05-08 14:58 | 36.94593 | 30.35130 | 18683 ft | 419 kts | 4° |
| 2026-05-08 14:58 | 36.97491 | 30.35529 | 18280 ft | 417 kts | 4° |
| 2026-05-08 14:58 | 37.00364 | 30.35921 | 17829 ft | 414 kts | 4° |
| 2026-05-08 14:58 | 37.03225 | 30.36310 | 17648 ft | 414 kts | 4° |
| 2026-05-08 14:59 | 37.06084 | 30.36700 | 17443 ft | 413 kts | 4° |
| 2026-05-08 14:59 | 37.11776 | 30.37470 | 16698 ft | 409 kts | 4° |
| 2026-05-08 14:59 | 37.14585 | 30.37846 | 16279 ft | 405 kts | 4° |
| 2026-05-08 15:00 | 37.17327 | 30.38213 | 15865 ft | 404 kts | 3° |
| 2026-05-08 15:00 | 37.20166 | 30.38594 | 15361 ft | 401 kts | 4° |
| 2026-05-08 15:00 | 37.22931 | 30.38965 | 14837 ft | 398 kts | 4° |
| 2026-05-08 15:00 | 37.25673 | 30.39333 | 14371 ft | 394 kts | 4° |
| 2026-05-08 15:01 | 37.28385 | 30.39697 | 13935 ft | 390 kts | 4° |
| 2026-05-08 15:01 | 37.31073 | 30.40059 | 13412 ft | 387 kts | 5° |
| 2026-05-08 15:01 | 37.33700 | 30.40523 | 12917 ft | 376 kts | 13° |
| 2026-05-08 15:01 | 37.36026 | 30.41871 | 12498 ft | 364 kts | 34° |
| 2026-05-08 15:02 | 37.37681 | 30.44181 | 12106 ft | 352 kts | 60° |
| 2026-05-08 15:02 | 37.38380 | 30.47015 | 11777 ft | 341 kts | 85° |
| 2026-05-08 15:02 | 37.38119 | 30.49911 | 11396 ft | 330 kts | 104° |
| 2026-05-08 15:02 | 37.37512 | 30.52642 | 11027 ft | 319 kts | 108° |
| 2026-05-08 15:03 | 37.36951 | 30.55284 | 10676 ft | 308 kts | 101° |
| 2026-05-08 15:03 | 37.36489 | 30.57878 | 10347 ft | 299 kts | 102° |
| 2026-05-08 15:03 | 37.36021 | 30.60389 | 10032 ft | 291 kts | 102° |
| 2026-05-08 15:03 | 37.35556 | 30.62821 | 9695 ft | 282 kts | 102° |
| 2026-05-08 15:04 | 37.35095 | 30.65199 | 9387 ft | 278 kts | 103° |
| 2026-05-08 15:04 | 37.34635 | 30.67542 | 9057 ft | 274 kts | 103° |
| 2026-05-08 15:04 | 37.34181 | 30.69841 | 8766 ft | 269 kts | 102° |
| 2026-05-08 15:04 | 37.33733 | 30.72098 | 8462 ft | 263 kts | 103° |
| 2026-05-08 15:05 | 37.33295 | 30.74300 | 8256 ft | 257 kts | 103° |
| 2026-05-08 15:05 | 37.32866 | 30.76460 | 8009 ft | 254 kts | 103° |
| 2026-05-08 15:05 | 37.32437 | 30.78614 | 7697 ft | 254 kts | 102° |
| 2026-05-08 15:05 | 37.32009 | 30.80764 | 7424 ft | 253 kts | 103° |
| 2026-05-08 15:06 | 37.31550 | 30.82898 | 7117 ft | 253 kts | 111° |
| 2026-05-08 15:06 | 37.30552 | 30.84689 | 6801 ft | 251 kts | 140° |
| 2026-05-08 15:06 | 37.29031 | 30.85651 | 6519 ft | 242 kts | 168° |
| 2026-05-08 15:06 | 37.27391 | 30.85699 | 6249 ft | 232 kts | 188° |
| 2026-05-08 15:07 | 37.25817 | 30.85422 | 6034 ft | 225 kts | 188° |
| 2026-05-08 15:07 | 37.24288 | 30.85133 | 5845 ft | 220 kts | 189° |
| 2026-05-08 15:07 | 37.22786 | 30.84834 | 5612 ft | 216 kts | 189° |
| 2026-05-08 15:07 | 37.21327 | 30.84535 | 5402 ft | 210 kts | 189° |
| 2026-05-08 15:08 | 37.19895 | 30.84235 | 5182 ft | 206 kts | 189° |
| 2026-05-08 15:08 | 37.18968 | 30.84039 | 5028 ft | 203 kts | 189° |
| 2026-05-08 15:08 | 37.17136 | 30.83647 | 4749 ft | 196 kts | 188° |
| 2026-05-08 15:08 | 37.15806 | 30.83360 | 4517 ft | 191 kts | 189° |
| 2026-05-08 15:09 | 37.14500 | 30.83078 | 4342 ft | 190 kts | 188° |
| 2026-05-08 15:09 | 37.13214 | 30.82800 | 4166 ft | 190 kts | 189° |
| 2026-05-08 15:09 | 37.11907 | 30.82517 | 3973 ft | 190 kts | 189° |
| 2026-05-08 15:09 | 37.10609 | 30.82236 | 3780 ft | 190 kts | 189° |
| 2026-05-08 15:10 | 37.09314 | 30.81955 | 3636 ft | 188 kts | 188° |
| 2026-05-08 15:10 | 37.08012 | 30.81731 | 3425 ft | 193 kts | 185° |
| 2026-05-08 15:10 | 37.06666 | 30.81544 | 3147 ft | 194 kts | 185° |
| 2026-05-08 15:10 | 37.05358 | 30.81377 | 3127 ft | 182 kts | 184° |
| 2026-05-08 15:11 | 37.04108 | 30.81210 | 3137 ft | 180 kts | 185° |
| 2026-05-08 15:11 | 37.02866 | 30.81023 | 3127 ft | 177 kts | 188° |
| 2026-05-08 15:11 | 37.01643 | 30.80778 | 3027 ft | 181 kts | 188° |
| 2026-05-08 15:11 | 37.00396 | 30.80561 | 2904 ft | 184 kts | 186° |
| 2026-05-08 15:12 | 36.99091 | 30.80410 | 2692 ft | 194 kts | 185° |
| 2026-05-08 15:12 | 36.97725 | 30.80238 | 2348 ft | 199 kts | 184° |
| 2026-05-08 15:12 | 36.96377 | 30.80109 | 2349 ft | 192 kts | 185° |
| 2026-05-08 15:12 | 36.95066 | 30.79929 | 2321 ft | 187 kts | 188° |
| 2026-05-08 15:13 | 36.93756 | 30.79706 | 3140 ft | 189 kts | 186° |
| 2026-05-08 15:13 | 36.92435 | 30.79499 | 3776 ft | 193 kts | 185° |
| 2026-05-08 15:13 | 36.91095 | 30.79320 | 4208 ft | 194 kts | 185° |
| 2026-05-08 15:13 | 36.89732 | 30.79085 | 4610 ft | 201 kts | 193° |
| 2026-05-08 15:14 | 36.88558 | 30.78192 | 4618 ft | 200 kts | 229° |
| 2026-05-08 15:14 | 36.88033 | 30.76625 | 4479 ft | 196 kts | 268° |
| 2026-05-08 15:14 | 36.88121 | 30.74949 | 4724 ft | 200 kts | 277° |
| 2026-05-08 15:14 | 36.88293 | 30.73207 | 4954 ft | 203 kts | 278° |
| 2026-05-08 15:15 | 36.88464 | 30.71457 | 5028 ft | 202 kts | 277° |
| 2026-05-08 15:15 | 36.88632 | 30.69705 | 5037 ft | 207 kts | 277° |
| 2026-05-08 15:15 | 36.88792 | 30.67953 | 5842 ft | 204 kts | 278° |
| 2026-05-08 15:15 | 36.88940 | 30.66112 | 5841 ft | 218 kts | 277° |
| 2026-05-08 15:16 | 36.89080 | 30.64267 | 5913 ft | 212 kts | 277° |
| 2026-05-08 15:16 | 36.89449 | 30.62507 | 5945 ft | 208 kts | 305° |
| 2026-05-08 15:16 | 36.90479 | 30.61319 | 5918 ft | 202 kts | 335° |
| 2026-05-08 15:16 | 36.91771 | 30.60603 | 6000 ft | 205 kts | 339° |
| 2026-05-08 15:17 | 36.93109 | 30.59983 | 5996 ft | 206 kts | 348° |
| 2026-05-08 15:17 | 36.94567 | 30.59701 | 5975 ft | 221 kts | 355° |
| 2026-05-08 15:17 | 36.96145 | 30.59516 | 5979 ft | 231 kts | 355° |
| 2026-05-08 15:17 | 36.97765 | 30.59345 | 5968 ft | 235 kts | 359° |
| 2026-05-08 15:18 | 36.99403 | 30.59425 | 5968 ft | 236 kts | 5° |
| 2026-05-08 15:18 | 37.01038 | 30.59605 | 5964 ft | 236 kts | 5° |
| 2026-05-08 15:18 | 37.02679 | 30.59790 | 5911 ft | 236 kts | 6° |
| 2026-05-08 15:18 | 37.04314 | 30.59971 | 5940 ft | 236 kts | 5° |
| 2026-05-08 15:19 | 37.05949 | 30.60156 | 5975 ft | 236 kts | 5° |
| 2026-05-08 15:19 | 37.07589 | 30.60344 | 5982 ft | 237 kts | 5° |
| 2026-05-08 15:19 | 37.09230 | 30.60533 | 5976 ft | 237 kts | 5° |
| 2026-05-08 15:19 | 37.10876 | 30.60721 | 5981 ft | 237 kts | 5° |
| 2026-05-08 15:20 | 37.12520 | 30.60906 | 5979 ft | 237 kts | 5° |
| 2026-05-08 15:20 | 37.14160 | 30.61089 | 5981 ft | 237 kts | 5° |
| 2026-05-08 15:20 | 37.15802 | 30.61285 | 5975 ft | 237 kts | 5° |
| 2026-05-08 15:20 | 37.17451 | 30.61485 | 5984 ft | 239 kts | 5° |
| 2026-05-08 15:21 | 37.19103 | 30.61684 | 5984 ft | 238 kts | 5° |
| 2026-05-08 15:21 | 37.20727 | 30.61880 | 5999 ft | 237 kts | 5° |
| 2026-05-08 15:21 | 37.22368 | 30.62083 | 5985 ft | 237 kts | 5° |
| 2026-05-08 15:21 | 37.24017 | 30.62287 | 6002 ft | 238 kts | 5° |
| 2026-05-08 15:22 | 37.25646 | 30.62589 | 5967 ft | 233 kts | 21° |
| 2026-05-08 15:22 | 37.26842 | 30.63759 | 5918 ft | 211 kts | 58° |
| 2026-05-08 15:22 | 37.27356 | 30.65444 | 6116 ft | 208 kts | 77° |
| 2026-05-08 15:22 | 37.27437 | 30.67267 | 6112 ft | 211 kts | 96° |
| 2026-05-08 15:23 | 37.27035 | 30.69035 | 6051 ft | 212 kts | 109° |
| 2026-05-08 15:23 | 37.26703 | 30.70188 | 6054 ft | 212 kts | 108° |
| 2026-05-08 15:23 | 37.26214 | 30.71933 | 6027 ft | 212 kts | 108° |
| 2026-05-08 15:23 | 37.25730 | 30.73687 | 5993 ft | 213 kts | 108° |
| 2026-05-08 15:24 | 37.25251 | 30.75438 | 6000 ft | 212 kts | 108° |
| 2026-05-08 15:24 | 37.24773 | 30.77191 | 5986 ft | 212 kts | 108° |
| 2026-05-08 15:24 | 37.24295 | 30.78946 | 5902 ft | 213 kts | 107° |
| 2026-05-08 15:24 | 37.23803 | 30.80689 | 5700 ft | 212 kts | 114° |
| 2026-05-08 15:25 | 37.22868 | 30.82033 | 5654 ft | 201 kts | 148° |
| 2026-05-08 15:25 | 37.21579 | 30.82611 | 5628 ft | 201 kts | 172° |
| 2026-05-08 15:25 | 37.20180 | 30.82732 | 5467 ft | 201 kts | 177° |
| 2026-05-08 15:25 | 37.18781 | 30.82798 | 5254 ft | 201 kts | 178° |
| 2026-05-08 15:26 | 37.17390 | 30.82840 | 5012 ft | 199 kts | 178° |
| 2026-05-08 15:26 | 37.16016 | 30.82790 | 4761 ft | 196 kts | 185° |
| 2026-05-08 15:26 | 37.14668 | 30.82611 | 4531 ft | 194 kts | 185° |
| 2026-05-08 15:26 | 37.13333 | 30.82434 | 4275 ft | 191 kts | 185° |
| 2026-05-08 15:27 | 37.12018 | 30.82273 | 4055 ft | 188 kts | 185° |
| 2026-05-08 15:27 | 37.10723 | 30.82115 | 3828 ft | 186 kts | 185° |
| 2026-05-08 15:27 | 37.09444 | 30.81942 | 3613 ft | 184 kts | 185° |
| 2026-05-08 15:27 | 37.08183 | 30.81772 | 3397 ft | 177 kts | 185° |
| 2026-05-08 15:28 | 37.07006 | 30.81604 | 3234 ft | 166 kts | 186° |
| 2026-05-08 15:28 | 37.05854 | 30.81442 | 3083 ft | 167 kts | 185° |
| 2026-05-08 15:28 | 37.04692 | 30.81278 | 2841 ft | 171 kts | 187° |
| 2026-05-08 15:28 | 37.03478 | 30.81078 | 2598 ft | 179 kts | 187° |
| 2026-05-08 15:29 | 37.02266 | 30.80862 | 2460 ft | 173 kts | 184° |
| 2026-05-08 15:29 | 37.01073 | 30.80735 | 2376 ft | 171 kts | 182° |
| 2026-05-08 15:29 | 36.99878 | 30.80618 | 2103 ft | 178 kts | 184° |
| 2026-05-08 15:29 | 36.98634 | 30.80437 | 1883 ft | 179 kts | 188° |
| 2026-05-08 15:30 | 36.97411 | 30.80246 | 1589 ft | 176 kts | 185° |
| 2026-05-08 15:30 | 36.96205 | 30.80087 | 1321 ft | 171 kts | 185° |
| 2026-05-08 15:30 | 36.95033 | 30.79933 | 958 ft | 168 kts | 184° |
| 2026-05-08 15:30 | 36.93911 | 30.79768 | 679 ft | 156 kts | 184° |
| 2026-05-08 15:31 | 36.92847 | 30.79633 | 458 ft | 152 kts | 182° |
| 2026-05-08 15:31 | 36.91793 | 30.79502 | 293 ft | 151 kts | 182° |
| 2026-05-08 15:31 | 36.90770 | 30.79368 | 195 ft | 138 kts | 184° |
| 2026-05-08 15:31 | 36.90070 | 30.79276 | 205 ft | 67 kts | 186° |
| 2026-05-08 15:32 | 36.89745 | 30.79232 | 196 ft | 30 kts | 186° |
| 2026-05-08 15:32 | 36.89545 | 30.79256 | 201 ft | 22 kts | 156° |
| 2026-05-08 15:32 | 36.89433 | 30.79318 | 205 ft | 5 kts | 157° |
| 2026-05-08 15:32 | 36.89433 | 30.79319 | 205 ft | 0 kts | 157° |
| 2026-05-08 15:33 | 36.89432 | 30.79319 | 204 ft | 1 kts | 157° |
| 2026-05-08 15:34 | 36.89412 | 30.79329 | 199 ft | 6 kts | 157° |
| 2026-05-08 15:34 | 36.89354 | 30.79360 | 202 ft | 8 kts | 158° |
| 2026-05-08 15:34 | 36.89337 | 30.79391 | 197 ft | 3 kts | 54° |
| 2026-05-08 15:34 | 36.89380 | 30.79401 | 199 ft | 12 kts | 6° |
| 2026-05-08 15:35 | 36.89500 | 30.79418 | 201 ft | 21 kts | 6° |
| 2026-05-08 15:35 | 36.89649 | 30.79438 | 196 ft | 10 kts | 6° |
| 2026-05-08 15:35 | 36.89667 | 30.79471 | 197 ft | 6 kts | 82° |
| 2026-05-08 15:35 | 36.89661 | 30.79528 | 204 ft | 8 kts | 100° |
| 2026-05-08 15:36 | 36.89653 | 30.79605 | 194 ft | 10 kts | 96° |
| 2026-05-08 15:36 | 36.89645 | 30.79704 | 194 ft | 13 kts | 96° |
| 2026-05-08 15:36 | 36.89634 | 30.79822 | 207 ft | 15 kts | 96° |
| 2026-05-08 15:36 | 36.89629 | 30.79908 | 194 ft | 2 kts | 65° |
| 2026-05-08 15:37 | 36.89651 | 30.79907 | 194 ft | 9 kts | 351° |
| 2026-05-08 15:37 | 36.89717 | 30.79923 | 198 ft | 8 kts | 47° |
| 2026-05-08 15:37 | 36.89740 | 30.79985 | 194 ft | 6 kts | 68° |
| 2026-05-08 15:37 | 36.89745 | 30.80001 | 201 ft | 0 kts | 68° |